createdAt,value
2017-10-08T00:00:30.016Z,12.46
2017-10-08T00:01:29.341Z,12.56
2017-10-08T00:02:29.388Z,12.52
2017-10-08T00:03:29.623Z,12.49
2017-10-08T00:04:29.914Z,12.57
2017-10-08T00:05:29.610Z,12.46
2017-10-08T00:06:29.951Z,12.54
2017-10-08T00:07:29.598Z,12.54
2017-10-08T00:08:29.981Z,12.51
2017-10-08T00:09:29.974Z,12.51
2017-10-08T00:10:30.207Z,12.49
2017-10-08T00:11:29.864Z,12.27
2017-10-08T00:12:29.654Z,12.13
2017-10-08T00:13:29.705Z,11.90
2017-10-08T00:14:29.752Z,11.70
2017-10-08T00:15:30.595Z,11.53
2017-10-08T00:16:30.709Z,11.39
2017-10-08T00:17:30.713Z,11.38
2017-10-08T00:18:30.662Z,11.46
2017-10-08T00:19:30.976Z,11.39
2017-10-08T00:20:30.838Z,11.36
2017-10-08T00:21:30.876Z,11.27
2017-10-08T00:22:31.090Z,11.14
2017-10-08T00:23:30.987Z,10.99
2017-10-08T00:24:31.048Z,10.96
2017-10-08T00:25:31.103Z,10.91
2017-10-08T00:26:31.147Z,10.76
2017-10-08T00:27:31.321Z,10.76
2017-10-08T00:28:31.293Z,10.68
2017-10-08T00:29:31.539Z,10.62
2017-10-08T00:30:31.352Z,10.60
2017-10-08T00:31:31.532Z,10.56
2017-10-08T00:32:31.567Z,10.40
2017-10-08T00:33:31.639Z,10.36
2017-10-08T00:34:31.623Z,10.18
2017-10-08T00:35:33.247Z,10.07
2017-10-08T00:36:31.579Z,10.04
2017-10-08T00:37:31.756Z,9.96
2017-10-08T00:38:31.511Z,10.01
2017-10-08T00:39:31.845Z,10.01
2017-10-08T00:40:31.836Z,9.86
2017-10-08T00:41:31.834Z,9.79
2017-10-08T00:42:31.700Z,9.75
2017-10-08T00:43:31.983Z,9.82
2017-10-08T00:44:32.059Z,9.91
2017-10-08T00:45:32.256Z,9.96
2017-10-08T00:46:32.108Z,9.86
2017-10-08T00:47:32.181Z,9.88
2017-10-08T00:48:32.190Z,9.88
2017-10-08T00:49:31.905Z,9.76
2017-10-08T00:50:32.681Z,9.75
2017-10-08T00:51:32.288Z,9.75
2017-10-08T00:52:32.361Z,9.63
2017-10-08T00:53:32.429Z,9.58
2017-10-08T00:54:32.406Z,9.52
2017-10-08T00:55:32.442Z,9.53
2017-10-08T00:56:32.674Z,9.48
2017-10-08T00:57:32.628Z,9.43
2017-10-08T00:58:32.699Z,9.53
2017-10-08T00:59:32.844Z,9.56
2017-10-08T01:00:32.846Z,9.53
2017-10-08T01:01:32.528Z,9.56
2017-10-08T01:02:33.285Z,9.52
2017-10-08T01:03:32.887Z,9.49
2017-10-08T01:04:32.547Z,9.52
2017-10-08T01:05:32.384Z,9.46
2017-10-08T01:06:32.752Z,9.75
2017-10-08T01:07:32.851Z,9.85
2017-10-08T01:08:32.936Z,9.88
2017-10-08T01:09:32.760Z,9.96
2017-10-08T01:10:32.798Z,9.81
2017-10-08T01:11:32.951Z,9.78
2017-10-08T01:12:32.825Z,9.70
2017-10-08T01:13:33.200Z,9.58
2017-10-08T01:14:32.752Z,9.57
2017-10-08T01:15:32.820Z,9.46
2017-10-08T01:16:32.864Z,9.48
2017-10-08T01:17:33.220Z,9.50
2017-10-08T01:18:32.973Z,9.52
2017-10-08T01:19:33.170Z,9.50
2017-10-08T01:20:33.058Z,9.46
2017-10-08T01:21:33.267Z,9.48
2017-10-08T01:22:33.589Z,9.58
2017-10-08T01:23:33.209Z,9.49
2017-10-08T01:24:33.404Z,9.57
2017-10-08T01:25:33.308Z,9.48
2017-10-08T01:26:34.065Z,9.48
2017-10-08T01:27:33.751Z,9.39
2017-10-08T01:28:33.999Z,9.46
2017-10-08T01:29:33.487Z,9.49
2017-10-08T01:30:33.620Z,9.57
2017-10-08T01:31:34.163Z,9.70
2017-10-08T01:32:34.024Z,9.64
2017-10-08T01:33:33.760Z,9.67
2017-10-08T01:34:33.692Z,9.70
2017-10-08T01:35:33.958Z,9.66
2017-10-08T01:36:34.262Z,9.76
2017-10-08T01:37:34.191Z,9.75
2017-10-08T01:38:34.257Z,9.85
2017-10-08T01:39:34.619Z,9.83
2017-10-08T01:40:34.408Z,9.81
2017-10-08T01:41:34.366Z,9.76
2017-10-08T01:42:34.377Z,9.63
2017-10-08T01:43:34.333Z,9.73
2017-10-08T01:44:33.952Z,9.81
2017-10-08T01:45:34.973Z,9.79
2017-10-08T01:46:34.906Z,9.83
2017-10-08T01:47:35.006Z,9.75
2017-10-08T01:48:34.933Z,9.68
2017-10-08T01:49:35.041Z,9.70
2017-10-08T01:50:35.217Z,9.60
2017-10-08T01:51:36.030Z,9.58
2017-10-08T01:52:34.671Z,9.48
2017-10-08T01:53:34.841Z,9.52
2017-10-08T01:54:35.022Z,9.46
2017-10-08T01:55:34.817Z,9.43
2017-10-08T01:56:35.056Z,9.67
2017-10-08T01:57:34.878Z,9.85
2017-10-08T01:58:35.275Z,9.76
2017-10-08T01:59:34.982Z,9.75
2017-10-08T02:00:35.132Z,9.67
2017-10-08T02:01:35.208Z,9.57
2017-10-08T02:02:35.043Z,9.58
2017-10-08T02:03:35.389Z,9.31
2017-10-08T02:04:35.538Z,9.48
2017-10-08T02:05:35.260Z,9.48
2017-10-08T02:06:35.529Z,9.45
2017-10-08T02:07:35.451Z,9.52
2017-10-08T02:08:35.377Z,9.42
2017-10-08T02:09:35.532Z,9.49
2017-10-08T02:10:35.483Z,9.30
2017-10-08T02:11:35.789Z,9.45
2017-10-08T02:12:35.507Z,9.38
2017-10-08T02:13:35.477Z,9.34
2017-10-08T02:14:36.274Z,9.32
2017-10-08T02:15:36.188Z,9.42
2017-10-08T02:16:35.714Z,9.32
2017-10-08T02:17:36.029Z,9.45
2017-10-08T02:18:35.848Z,9.48
2017-10-08T02:19:36.358Z,9.42
2017-10-08T02:20:36.397Z,9.45
2017-10-08T02:21:36.576Z,9.31
2017-10-08T02:22:36.035Z,9.31
2017-10-08T02:23:36.636Z,9.23
2017-10-08T02:24:36.422Z,9.21
2017-10-08T02:25:36.379Z,9.15
2017-10-08T02:26:36.706Z,9.20
2017-10-08T02:27:36.528Z,9.05
2017-10-08T02:28:36.418Z,9.02
2017-10-08T02:29:36.690Z,8.99
2017-10-08T02:30:36.383Z,8.88
2017-10-08T02:31:36.445Z,9.01
2017-10-08T02:32:36.613Z,9.05
2017-10-08T02:33:36.599Z,9.12
2017-10-08T02:34:36.801Z,9.18
2017-10-08T02:35:36.528Z,9.13
2017-10-08T02:36:36.546Z,9.21
2017-10-08T02:37:36.768Z,9.12
2017-10-08T02:38:36.612Z,9.16
2017-10-08T02:39:37.484Z,9.01
2017-10-08T02:40:37.622Z,9.05
2017-10-08T02:41:37.205Z,9.02
2017-10-08T02:42:37.487Z,8.91
2017-10-08T02:43:36.986Z,8.99
2017-10-08T02:44:37.038Z,9.02
2017-10-08T02:45:37.357Z,9.01
2017-10-08T02:46:37.011Z,9.01
2017-10-08T02:47:37.409Z,9.02
2017-10-08T02:48:37.508Z,8.97
2017-10-08T02:49:37.292Z,8.97
2017-10-08T02:50:37.351Z,9.04
2017-10-08T02:51:37.349Z,9.04
2017-10-08T02:52:37.456Z,9.02
2017-10-08T02:53:37.469Z,9.06
2017-10-08T02:54:37.391Z,9.06
2017-10-08T02:55:37.853Z,9.01
2017-10-08T02:56:38.187Z,9.18
2017-10-08T02:57:37.769Z,9.12
2017-10-08T02:58:37.760Z,9.09
2017-10-08T02:59:37.818Z,9.05
2017-10-08T03:00:38.026Z,9.13
2017-10-08T03:01:37.778Z,9.27
2017-10-08T03:02:38.108Z,9.38
2017-10-08T03:03:37.871Z,9.45
2017-10-08T03:04:38.223Z,9.49
2017-10-08T03:05:38.434Z,9.49
2017-10-08T03:06:38.036Z,9.45
2017-10-08T03:07:38.051Z,9.32
2017-10-08T03:08:38.786Z,9.32
2017-10-08T03:09:38.336Z,9.31
2017-10-08T03:10:38.313Z,9.34
2017-10-08T03:11:38.717Z,9.34
2017-10-08T03:12:38.191Z,9.31
2017-10-08T03:13:38.296Z,9.21
2017-10-08T03:14:38.912Z,9.18
2017-10-08T03:15:38.403Z,9.35
2017-10-08T03:16:38.876Z,9.34
2017-10-08T03:17:38.626Z,9.35
2017-10-08T03:18:38.606Z,9.39
2017-10-08T03:19:39.233Z,9.49
2017-10-08T03:20:39.285Z,9.42
2017-10-08T03:21:39.135Z,9.49
2017-10-08T03:22:38.846Z,9.49
2017-10-08T03:23:39.192Z,9.48
2017-10-08T03:24:39.223Z,9.53
2017-10-08T03:25:38.844Z,9.50
2017-10-08T03:26:39.424Z,9.49
2017-10-08T03:27:39.223Z,9.49
2017-10-08T03:28:39.046Z,9.30
2017-10-08T03:29:39.244Z,9.39
2017-10-08T03:30:39.071Z,9.38
2017-10-08T03:31:39.939Z,9.43
2017-10-08T03:32:39.620Z,9.45
2017-10-08T03:33:39.309Z,9.60
2017-10-08T03:34:39.544Z,9.66
2017-10-08T03:35:40.471Z,9.66
2017-10-08T03:36:39.738Z,9.64
2017-10-08T03:37:39.458Z,9.70
2017-10-08T03:38:39.434Z,9.66
2017-10-08T03:39:39.753Z,9.68
2017-10-08T03:40:39.858Z,9.53
2017-10-08T03:41:40.088Z,9.48
2017-10-08T03:42:39.689Z,9.67
2017-10-08T03:43:39.715Z,9.78
2017-10-08T03:44:40.526Z,9.91
2017-10-08T03:45:40.518Z,10.00
2017-10-08T03:46:40.356Z,9.97
2017-10-08T03:47:40.156Z,10.06
2017-10-08T03:48:40.094Z,10.07
2017-10-08T03:49:39.921Z,10.15
2017-10-08T03:50:39.772Z,10.15
2017-10-08T03:51:39.816Z,10.03
2017-10-08T03:52:39.932Z,10.14
2017-10-08T03:53:40.519Z,10.12
2017-10-08T03:54:40.732Z,10.28
2017-10-08T03:55:40.797Z,10.32
2017-10-08T03:56:40.899Z,10.32
2017-10-08T03:57:40.927Z,10.25
2017-10-08T03:58:41.044Z,10.26
2017-10-08T03:59:41.131Z,10.26
2017-10-08T04:00:41.089Z,10.25
2017-10-08T04:01:41.210Z,10.24
2017-10-08T04:02:41.172Z,10.24
2017-10-08T04:03:41.229Z,10.21
2017-10-08T04:04:41.188Z,10.18
2017-10-08T04:05:40.985Z,10.17
2017-10-08T04:06:41.334Z,10.10
2017-10-08T04:07:41.250Z,10.03
2017-10-08T04:08:41.221Z,10.03
2017-10-08T04:09:41.535Z,10.21
2017-10-08T04:10:41.551Z,10.17
2017-10-08T04:11:41.745Z,10.19
2017-10-08T04:12:41.710Z,10.17
2017-10-08T04:13:42.210Z,10.03
2017-10-08T04:14:41.864Z,10.06
2017-10-08T04:15:41.461Z,10.12
2017-10-08T04:16:41.743Z,10.17
2017-10-08T04:17:41.843Z,10.12
2017-10-08T04:18:42.032Z,10.22
2017-10-08T04:19:41.914Z,10.15
2017-10-08T04:20:41.977Z,10.07
2017-10-08T04:21:42.040Z,10.19
2017-10-08T04:22:42.099Z,10.14
2017-10-08T04:23:42.221Z,10.07
2017-10-08T04:24:42.238Z,10.14
2017-10-08T04:25:42.200Z,10.25
2017-10-08T04:26:42.258Z,10.32
2017-10-08T04:27:42.410Z,10.22
2017-10-08T04:28:42.377Z,10.22
2017-10-08T04:29:42.449Z,10.25
2017-10-08T04:30:42.487Z,10.28
2017-10-08T04:31:42.022Z,10.15
2017-10-08T04:32:42.085Z,10.15
2017-10-08T04:33:42.661Z,10.07
2017-10-08T04:34:42.734Z,10.15
2017-10-08T04:35:42.850Z,10.07
2017-10-08T04:36:42.831Z,9.93
2017-10-08T04:37:42.972Z,9.81
2017-10-08T04:38:42.758Z,9.88
2017-10-08T04:39:42.390Z,9.82
2017-10-08T04:40:42.089Z,9.82
2017-10-08T04:41:43.042Z,9.81
2017-10-08T04:42:43.023Z,9.85
2017-10-08T04:43:43.027Z,9.83
2017-10-08T04:44:43.211Z,9.73
2017-10-08T04:45:43.290Z,9.67
2017-10-08T04:46:43.294Z,9.58
2017-10-08T04:47:43.407Z,9.66
2017-10-08T04:48:43.232Z,9.63
2017-10-08T04:49:43.440Z,9.57
2017-10-08T04:50:43.341Z,9.50
2017-10-08T04:51:43.138Z,9.50
2017-10-08T04:52:43.884Z,9.49
2017-10-08T04:53:43.592Z,9.46
2017-10-08T04:54:43.675Z,9.43
2017-10-08T04:55:43.386Z,9.35
2017-10-08T04:56:43.825Z,9.38
2017-10-08T04:57:43.140Z,9.31
2017-10-08T04:58:43.322Z,9.25
2017-10-08T04:59:43.952Z,9.24
2017-10-08T05:00:43.752Z,9.31
2017-10-08T05:01:43.314Z,9.24
2017-10-08T05:02:43.831Z,9.32
2017-10-08T05:03:43.503Z,9.27
2017-10-08T05:04:43.975Z,9.28
2017-10-08T05:05:43.529Z,9.27
2017-10-08T05:06:43.815Z,9.25
2017-10-08T05:07:43.554Z,9.16
2017-10-08T05:08:43.638Z,9.34
2017-10-08T05:09:43.783Z,9.34
2017-10-08T05:10:43.988Z,9.32
2017-10-08T05:11:43.926Z,9.31
2017-10-08T05:12:43.761Z,9.31
2017-10-08T05:13:43.895Z,9.35
2017-10-08T05:14:45.331Z,9.27
2017-10-08T05:15:44.145Z,9.31
2017-10-08T05:16:44.364Z,9.34
2017-10-08T05:17:44.196Z,9.25
2017-10-08T05:18:44.480Z,9.28
2017-10-08T05:19:44.443Z,9.20
2017-10-08T05:20:44.179Z,9.21
2017-10-08T05:21:44.375Z,9.25
2017-10-08T05:22:45.221Z,9.20
2017-10-08T05:23:45.032Z,9.28
2017-10-08T05:24:44.350Z,9.32
2017-10-08T05:25:44.540Z,9.34
2017-10-08T05:26:44.450Z,9.38
2017-10-08T05:27:44.450Z,9.38
2017-10-08T05:28:45.293Z,9.35
2017-10-08T05:29:44.642Z,9.38
2017-10-08T05:30:44.983Z,9.34
2017-10-08T05:31:45.112Z,9.31
2017-10-08T05:32:44.813Z,9.35
2017-10-08T05:33:44.929Z,9.32
2017-10-08T05:34:45.106Z,9.32
2017-10-08T05:35:45.200Z,9.30
2017-10-08T05:36:45.011Z,9.31
2017-10-08T05:37:45.351Z,9.38
2017-10-08T05:38:45.195Z,9.30
2017-10-08T05:39:45.188Z,9.39
2017-10-08T05:40:45.373Z,9.39
2017-10-08T05:41:45.144Z,9.38
2017-10-08T05:42:45.151Z,9.32
2017-10-08T05:43:45.231Z,9.31
2017-10-08T05:44:45.736Z,9.32
2017-10-08T05:45:45.839Z,9.34
2017-10-08T05:46:45.557Z,9.40
2017-10-08T05:47:45.427Z,9.46
2017-10-08T05:48:45.550Z,9.43
2017-10-08T05:49:45.780Z,9.50
2017-10-08T05:50:45.720Z,9.45
2017-10-08T05:51:45.623Z,9.48
2017-10-08T05:52:57.397Z,9.45
2017-10-08T05:53:45.677Z,9.42
2017-10-08T05:54:46.114Z,9.38
2017-10-08T05:55:45.875Z,9.32
2017-10-08T05:56:46.053Z,9.31
2017-10-08T05:57:46.068Z,9.38
2017-10-08T05:58:46.041Z,9.40
2017-10-08T05:59:46.225Z,9.38
2017-10-08T06:00:46.552Z,9.35
2017-10-08T06:01:46.139Z,9.40
2017-10-08T06:02:46.564Z,9.40
2017-10-08T06:03:46.337Z,9.39
2017-10-08T06:04:46.186Z,9.42
2017-10-08T06:05:46.399Z,9.40
2017-10-08T06:06:46.728Z,9.46
2017-10-08T06:07:46.325Z,9.52
2017-10-08T06:08:46.486Z,9.53
2017-10-08T06:09:46.657Z,9.53
2017-10-08T06:10:47.133Z,9.50
2017-10-08T06:11:47.098Z,9.53
2017-10-08T06:12:47.124Z,9.45
2017-10-08T06:13:46.823Z,9.48
2017-10-08T06:14:46.742Z,9.40
2017-10-08T06:15:46.802Z,9.35
2017-10-08T06:16:47.355Z,9.43
2017-10-08T06:17:47.571Z,9.49
2017-10-08T06:18:47.388Z,9.50
2017-10-08T06:19:47.556Z,9.53
2017-10-08T06:20:47.005Z,9.50
2017-10-08T06:21:47.607Z,9.52
2017-10-08T06:22:47.200Z,9.57
2017-10-08T06:23:47.107Z,9.58
2017-10-08T06:24:47.392Z,9.61
2017-10-08T06:25:47.561Z,9.67
2017-10-08T06:26:47.611Z,9.76
2017-10-08T06:27:47.315Z,9.76
2017-10-08T06:28:47.407Z,9.71
2017-10-08T06:29:47.331Z,9.73
2017-10-08T06:30:47.776Z,9.76
2017-10-08T06:31:47.666Z,9.75
2017-10-08T06:32:47.566Z,9.79
2017-10-08T06:33:47.582Z,9.76
2017-10-08T06:34:47.610Z,9.75
2017-10-08T06:35:47.659Z,9.67
2017-10-08T06:36:48.031Z,9.71
2017-10-08T06:37:48.026Z,9.76
2017-10-08T06:38:48.156Z,9.76
2017-10-08T06:39:47.873Z,9.78
2017-10-08T06:40:47.940Z,9.75
2017-10-08T06:41:48.268Z,9.81
2017-10-08T06:42:48.365Z,9.76
2017-10-08T06:43:47.977Z,9.67
2017-10-08T06:44:48.551Z,9.60
2017-10-08T06:45:48.237Z,9.52
2017-10-08T06:46:48.101Z,9.56
2017-10-08T06:47:48.454Z,9.67
2017-10-08T06:48:48.522Z,9.67
2017-10-08T06:49:48.371Z,9.70
2017-10-08T06:50:48.370Z,9.63
2017-10-08T06:51:48.374Z,9.70
2017-10-08T06:52:48.824Z,9.63
2017-10-08T06:53:48.934Z,9.76
2017-10-08T06:54:48.878Z,9.70
2017-10-08T06:55:48.683Z,9.70
2017-10-08T06:56:48.648Z,9.71
2017-10-08T06:57:49.081Z,9.76
2017-10-08T06:58:49.297Z,9.81
2017-10-08T06:59:49.421Z,9.79
2017-10-08T07:00:49.377Z,9.75
2017-10-08T07:01:49.567Z,9.82
2017-10-08T07:02:49.516Z,9.89
2017-10-08T07:03:49.600Z,9.88
2017-10-08T07:04:49.530Z,9.88
2017-10-08T07:05:49.780Z,9.88
2017-10-08T07:06:49.681Z,9.82
2017-10-08T07:07:49.531Z,9.83
2017-10-08T07:08:49.343Z,9.85
2017-10-08T07:09:49.289Z,9.86
2017-10-08T07:10:49.921Z,9.96
2017-10-08T07:11:49.931Z,9.96
2017-10-08T07:12:50.112Z,9.94
2017-10-08T07:13:50.149Z,9.86
2017-10-08T07:14:49.715Z,9.86
2017-10-08T07:15:49.712Z,9.86
2017-10-08T07:16:49.740Z,9.86
2017-10-08T07:17:49.620Z,9.91
2017-10-08T07:18:49.923Z,9.96
2017-10-08T07:19:49.774Z,9.99
2017-10-08T07:20:49.863Z,9.97
2017-10-08T07:21:49.777Z,9.91
2017-10-08T07:22:49.861Z,9.85
2017-10-08T07:23:50.685Z,9.83
2017-10-08T07:24:49.885Z,9.88
2017-10-08T07:25:50.009Z,9.97
2017-10-08T07:26:50.121Z,9.94
2017-10-08T07:27:50.246Z,9.96
2017-10-08T07:28:50.621Z,9.99
2017-10-08T07:29:50.436Z,9.91
2017-10-08T07:30:50.234Z,10.01
2017-10-08T07:31:50.328Z,9.94
2017-10-08T07:32:50.270Z,10.01
2017-10-08T07:33:50.860Z,9.94
2017-10-08T07:34:50.672Z,10.00
2017-10-08T07:35:50.415Z,9.99
2017-10-08T07:36:50.454Z,10.00
2017-10-08T07:37:50.554Z,9.99
2017-10-08T07:38:50.993Z,9.94
2017-10-08T07:39:50.647Z,9.94
2017-10-08T07:40:50.807Z,9.97
2017-10-08T07:41:51.223Z,9.99
2017-10-08T07:42:50.944Z,10.09
2017-10-08T07:43:51.294Z,10.14
2017-10-08T07:44:50.930Z,10.10
2017-10-08T07:45:50.866Z,10.12
2017-10-08T07:46:51.005Z,10.00
2017-10-08T07:47:51.394Z,10.15
2017-10-08T07:48:50.948Z,10.00
2017-10-08T07:49:51.469Z,9.93
2017-10-08T07:50:51.356Z,9.99
2017-10-08T07:51:51.202Z,9.93
2017-10-08T07:52:51.930Z,10.06
2017-10-08T07:53:51.365Z,10.10
2017-10-08T07:54:51.438Z,10.01
2017-10-08T07:55:51.717Z,10.06
2017-10-08T07:56:51.501Z,10.14
2017-10-08T07:57:51.643Z,10.17
2017-10-08T07:58:51.462Z,10.25
2017-10-08T07:59:51.986Z,10.39
2017-10-08T08:00:52.229Z,10.40
2017-10-08T08:01:51.793Z,10.36
2017-10-08T08:02:52.319Z,10.42
2017-10-08T08:03:52.156Z,10.43
2017-10-08T08:04:52.190Z,10.42
2017-10-08T08:05:51.813Z,10.42
2017-10-08T08:06:52.079Z,10.44
2017-10-08T08:07:52.333Z,10.47
2017-10-08T08:08:51.982Z,10.62
2017-10-08T08:09:52.327Z,10.53
2017-10-08T08:10:52.354Z,10.63
2017-10-08T08:11:52.457Z,10.59
2017-10-08T08:12:52.270Z,10.55
2017-10-08T08:13:52.282Z,10.60
2017-10-08T08:14:52.500Z,10.52
2017-10-08T08:15:52.709Z,10.59
2017-10-08T08:16:52.375Z,10.70
2017-10-08T08:17:52.807Z,10.73
2017-10-08T08:18:52.651Z,10.78
2017-10-08T08:19:52.474Z,10.73
2017-10-08T08:20:52.720Z,10.83
2017-10-08T08:21:52.862Z,10.84
2017-10-08T08:22:52.722Z,10.77
2017-10-08T08:23:53.172Z,10.74
2017-10-08T08:24:53.065Z,10.77
2017-10-08T08:25:53.563Z,10.80
2017-10-08T08:26:52.833Z,10.76
2017-10-08T08:27:52.932Z,10.73
2017-10-08T08:28:53.053Z,10.74
2017-10-08T08:29:53.153Z,10.81
2017-10-08T08:30:53.404Z,10.77
2017-10-08T08:31:53.125Z,10.73
2017-10-08T08:32:53.192Z,10.84
2017-10-08T08:33:53.390Z,10.83
2017-10-08T08:34:53.725Z,10.84
2017-10-08T08:35:53.900Z,10.77
2017-10-08T08:36:53.899Z,10.80
2017-10-08T08:37:53.482Z,10.83
2017-10-08T08:38:53.443Z,10.84
2017-10-08T08:39:53.381Z,10.81
2017-10-08T08:40:54.098Z,10.89
2017-10-08T08:41:54.097Z,10.98
2017-10-08T08:42:54.295Z,10.95
2017-10-08T08:43:54.318Z,10.96
2017-10-08T08:44:54.423Z,11.16
2017-10-08T08:45:54.424Z,11.03
2017-10-08T08:46:54.357Z,10.95
2017-10-08T08:47:54.478Z,10.99
2017-10-08T08:48:53.891Z,11.01
2017-10-08T08:49:54.553Z,10.99
2017-10-08T08:50:54.289Z,11.03
2017-10-08T08:51:54.081Z,10.98
2017-10-08T08:52:54.123Z,10.92
2017-10-08T08:53:54.308Z,10.91
2017-10-08T08:54:54.126Z,10.83
2017-10-08T08:55:54.193Z,10.84
2017-10-08T08:56:54.525Z,10.83
2017-10-08T08:57:54.426Z,10.86
2017-10-08T08:58:54.372Z,10.96
2017-10-08T08:59:54.628Z,10.95
2017-10-08T09:00:54.637Z,10.76
2017-10-08T09:01:54.773Z,10.83
2017-10-08T09:02:54.831Z,10.89
2017-10-08T09:03:54.788Z,11.01
2017-10-08T09:04:54.744Z,11.02
2017-10-08T09:05:54.786Z,11.11
2017-10-08T09:06:55.037Z,11.09
2017-10-08T09:07:54.924Z,11.09
2017-10-08T09:08:55.462Z,11.19
2017-10-08T09:09:55.603Z,11.17
2017-10-08T09:10:55.155Z,11.09
2017-10-08T09:11:55.225Z,11.24
2017-10-08T09:12:54.975Z,11.19
2017-10-08T09:13:55.077Z,11.10
2017-10-08T09:14:55.163Z,11.07
2017-10-08T09:15:55.321Z,10.96
2017-10-08T09:16:55.341Z,11.02
2017-10-08T09:17:55.531Z,11.07
2017-10-08T09:18:55.517Z,11.13
2017-10-08T09:19:55.527Z,11.14
2017-10-08T09:20:55.464Z,11.24
2017-10-08T09:21:55.758Z,11.31
2017-10-08T09:22:55.822Z,11.32
2017-10-08T09:23:55.575Z,11.31
2017-10-08T09:24:56.166Z,11.29
2017-10-08T09:25:55.590Z,11.43
2017-10-08T09:26:56.290Z,11.46
2017-10-08T09:27:56.137Z,11.47
2017-10-08T09:28:55.508Z,11.34
2017-10-08T09:29:56.499Z,11.34
2017-10-08T09:30:56.438Z,11.34
2017-10-08T09:31:56.108Z,11.31
2017-10-08T09:32:56.490Z,11.32
2017-10-08T09:33:56.705Z,11.27
2017-10-08T09:34:56.699Z,11.24
2017-10-08T09:35:56.735Z,11.13
2017-10-08T09:36:56.845Z,11.13
2017-10-08T09:37:56.892Z,11.10
2017-10-08T09:38:56.962Z,10.91
2017-10-08T09:39:56.961Z,10.96
2017-10-08T09:40:57.002Z,10.99
2017-10-08T09:41:56.805Z,11.03
2017-10-08T09:42:57.138Z,11.02
2017-10-08T09:43:57.180Z,11.10
2017-10-08T09:44:57.176Z,11.07
2017-10-08T09:45:57.234Z,11.06
2017-10-08T09:46:57.174Z,11.25
2017-10-08T09:47:57.256Z,11.27
2017-10-08T09:48:57.411Z,11.25
2017-10-08T09:49:57.489Z,11.24
2017-10-08T09:50:57.488Z,11.32
2017-10-08T09:51:57.508Z,11.28
2017-10-08T09:52:57.157Z,11.35
2017-10-08T09:53:56.953Z,11.46
2017-10-08T09:54:57.103Z,11.34
2017-10-08T09:55:56.970Z,11.32
2017-10-08T09:56:57.230Z,11.46
2017-10-08T09:57:57.473Z,11.49
2017-10-08T09:58:57.501Z,11.56
2017-10-08T09:59:57.502Z,11.49
2017-10-08T10:00:57.329Z,11.44
2017-10-08T10:01:57.368Z,11.50
2017-10-08T10:02:58.090Z,11.56
2017-10-08T10:03:57.825Z,11.54
2017-10-08T10:04:57.537Z,11.54
2017-10-08T10:05:57.564Z,11.59
2017-10-08T10:06:57.719Z,11.62
2017-10-08T10:07:57.617Z,11.57
2017-10-08T10:08:58.573Z,11.59
2017-10-08T10:09:57.667Z,11.54
2017-10-08T10:10:57.741Z,11.74
2017-10-08T10:11:57.816Z,11.86
2017-10-08T10:12:57.909Z,11.93
2017-10-08T10:13:58.146Z,12.06
2017-10-08T10:14:57.906Z,12.09
2017-10-08T10:15:58.406Z,12.16
2017-10-08T10:16:58.079Z,12.19
2017-10-08T10:17:57.826Z,12.29
2017-10-08T10:18:58.677Z,12.26
2017-10-08T10:19:58.743Z,12.42
2017-10-08T10:20:58.952Z,12.27
2017-10-08T10:21:58.790Z,12.23
2017-10-08T10:22:58.637Z,12.23
2017-10-08T10:23:59.140Z,12.26
2017-10-08T10:24:58.734Z,12.39
2017-10-08T10:25:59.201Z,12.38
2017-10-08T10:26:59.121Z,12.39
2017-10-08T10:27:59.066Z,12.34
2017-10-08T10:28:59.313Z,12.38
2017-10-08T10:29:59.384Z,12.46
2017-10-08T10:30:59.499Z,12.41
2017-10-08T10:31:59.336Z,12.34
2017-10-08T10:32:59.208Z,12.37
2017-10-08T10:33:59.355Z,12.27
2017-10-08T10:34:58.978Z,12.12
2017-10-08T10:35:59.035Z,12.13
2017-10-08T10:36:59.282Z,12.16
2017-10-08T10:37:59.359Z,12.20
2017-10-08T10:38:59.207Z,12.09
2017-10-08T10:39:59.360Z,12.05
2017-10-08T10:40:59.311Z,12.11
2017-10-08T10:41:59.750Z,11.96
2017-10-08T10:42:59.582Z,11.87
2017-10-08T10:43:59.673Z,11.82
2017-10-08T10:44:59.325Z,11.94
2017-10-08T10:45:59.412Z,11.90
2017-10-08T10:46:59.561Z,11.85
2017-10-08T10:47:59.481Z,11.82
2017-10-08T10:48:59.883Z,11.68
2017-10-08T10:49:59.677Z,11.80
2017-10-08T10:50:59.726Z,11.71
2017-10-08T10:52:00.267Z,11.65
2017-10-08T10:52:59.826Z,11.71
2017-10-08T10:53:59.921Z,11.72
2017-10-08T10:55:00.336Z,11.59
2017-10-08T10:56:00.205Z,11.72
2017-10-08T10:56:59.928Z,11.74
2017-10-08T10:58:00.148Z,11.78
2017-10-08T10:59:00.038Z,11.77
2017-10-08T11:00:00.418Z,11.74
2017-10-08T11:01:00.107Z,11.65
2017-10-08T11:02:00.260Z,11.74
2017-10-08T11:03:00.335Z,11.78
2017-10-08T11:04:00.226Z,11.74
2017-10-08T11:05:00.828Z,11.61
2017-10-08T11:06:00.626Z,11.72
2017-10-08T11:07:00.572Z,11.53
2017-10-08T11:08:00.794Z,11.59
2017-10-08T11:09:00.612Z,11.67
2017-10-08T11:10:00.981Z,11.57
2017-10-08T11:11:01.008Z,11.65
2017-10-08T11:12:01.270Z,11.64
2017-10-08T11:13:00.824Z,11.59
2017-10-08T11:14:00.794Z,11.64
2017-10-08T11:15:01.142Z,11.57
2017-10-08T11:16:00.810Z,11.57
2017-10-08T11:17:01.434Z,11.57
2017-10-08T11:18:01.208Z,11.57
2017-10-08T11:19:01.363Z,11.65
2017-10-08T11:20:01.373Z,11.78
2017-10-08T11:21:01.420Z,11.86
2017-10-08T11:22:01.215Z,11.86
2017-10-08T11:23:01.190Z,11.93
2017-10-08T11:24:01.255Z,12.01
2017-10-08T11:25:01.373Z,12.02
2017-10-08T11:26:01.709Z,12.01
2017-10-08T11:27:01.750Z,11.97
2017-10-08T11:28:01.786Z,11.97
2017-10-08T11:29:02.196Z,11.99
2017-10-08T11:30:01.667Z,11.96
2017-10-08T11:31:02.101Z,11.93
2017-10-08T11:32:01.734Z,12.02
2017-10-08T11:33:02.129Z,11.99
2017-10-08T11:34:01.841Z,11.99
2017-10-08T11:35:01.840Z,12.05
2017-10-08T11:36:02.276Z,11.96
2017-10-08T11:37:01.912Z,11.97
2017-10-08T11:38:02.152Z,12.01
2017-10-08T11:39:02.016Z,12.06
2017-10-08T11:40:02.342Z,12.04
2017-10-08T11:41:02.518Z,12.06
2017-10-08T11:42:02.399Z,12.08
2017-10-08T11:43:02.642Z,12.08
2017-10-08T11:44:02.143Z,11.96
2017-10-08T11:45:02.249Z,11.90
2017-10-08T11:46:02.854Z,11.96
2017-10-08T11:47:02.564Z,12.01
2017-10-08T11:48:02.515Z,11.96
2017-10-08T11:49:02.355Z,11.97
2017-10-08T11:50:02.657Z,11.99
2017-10-08T11:51:03.326Z,12.06
2017-10-08T11:52:02.687Z,12.12
2017-10-08T11:53:02.725Z,12.21
2017-10-08T11:54:03.148Z,12.13
2017-10-08T11:55:02.711Z,12.19
2017-10-08T11:56:03.387Z,12.20
2017-10-08T11:57:03.155Z,12.19
2017-10-08T11:58:03.468Z,12.16
2017-10-08T11:59:03.167Z,12.09
2017-10-08T12:00:02.914Z,12.15
2017-10-08T12:01:03.156Z,12.16
2017-10-08T12:02:03.551Z,12.13
2017-10-08T12:03:03.107Z,12.27
2017-10-08T12:04:03.268Z,12.16
2017-10-08T12:05:03.344Z,12.16
2017-10-08T12:06:03.255Z,12.09
2017-10-08T12:07:03.710Z,12.15
2017-10-08T12:08:03.704Z,12.13
2017-10-08T12:09:03.491Z,12.23
2017-10-08T12:10:03.786Z,12.15
2017-10-08T12:11:03.579Z,12.12
2017-10-08T12:12:03.935Z,12.12
2017-10-08T12:13:03.857Z,12.20
2017-10-08T12:14:03.719Z,12.19
2017-10-08T12:15:03.675Z,12.08
2017-10-08T12:16:03.759Z,12.12
2017-10-08T12:17:03.925Z,12.19
2017-10-08T12:18:04.024Z,12.24
2017-10-08T12:19:04.120Z,12.26
2017-10-08T12:20:03.853Z,12.31
2017-10-08T12:21:03.913Z,12.30
2017-10-08T12:22:04.153Z,12.30
2017-10-08T12:23:04.144Z,12.29
2017-10-08T12:24:04.250Z,12.26
2017-10-08T12:25:04.194Z,12.26
2017-10-08T12:26:04.223Z,12.26
2017-10-08T12:27:04.503Z,12.27
2017-10-08T12:28:04.232Z,12.44
2017-10-08T12:29:04.284Z,12.34
2017-10-08T12:30:04.277Z,12.34
2017-10-08T12:31:04.604Z,12.41
2017-10-08T12:32:04.731Z,12.38
2017-10-08T12:33:04.661Z,12.51
2017-10-08T12:34:04.623Z,12.52
2017-10-08T12:35:04.777Z,12.51
2017-10-08T12:36:04.899Z,12.45
2017-10-08T12:37:04.830Z,12.49
2017-10-08T12:38:04.876Z,12.49
2017-10-08T12:39:04.823Z,12.66
2017-10-08T12:40:04.845Z,12.49
2017-10-08T12:41:05.064Z,12.54
2017-10-08T12:42:05.654Z,12.66
2017-10-08T12:43:05.193Z,12.56
2017-10-08T12:44:05.591Z,12.46
2017-10-08T12:45:05.265Z,12.54
2017-10-08T12:46:05.377Z,12.51
2017-10-08T12:47:05.671Z,12.64
2017-10-08T12:48:05.428Z,12.49
2017-10-08T12:49:05.724Z,12.49
2017-10-08T12:50:05.720Z,12.57
2017-10-08T12:51:05.540Z,12.51
2017-10-08T12:52:05.596Z,12.54
2017-10-08T12:53:05.829Z,12.46
2017-10-08T12:54:05.554Z,12.59
2017-10-08T12:55:05.543Z,12.46
2017-10-08T12:56:05.648Z,12.49
2017-10-08T12:57:05.710Z,12.46
2017-10-08T12:58:06.040Z,12.59
2017-10-08T12:59:05.756Z,12.51
2017-10-08T13:00:05.878Z,12.44
2017-10-08T13:01:05.998Z,12.56
2017-10-08T13:02:06.219Z,12.44
2017-10-08T13:03:06.173Z,12.52
2017-10-08T13:04:06.350Z,12.49
2017-10-08T13:05:06.012Z,12.42